sensor_id;sensor_type;location;lat;lon;timestamp;P1;durP1;ratioP1;P2;durP2;ratioP2
10045;SDS011;5063;50.878;4.742;2023-04-15T00:00:48;3.73;;;2.70;;
10045;SDS011;5063;50.878;4.742;2023-04-15T00:03:15;5.43;;;2.70;;
10045;SDS011;5063;50.878;4.742;2023-04-15T00:05:41;3.53;;;2.60;;
10045;SDS011;5063;50.878;4.742;2023-04-15T00:08:07;4.33;;;2.43;;
10045;SDS011;5063;50.878;4.742;2023-04-15T00:10:33;3.87;;;2.80;;
10045;SDS011;5063;50.878;4.742;2023-04-15T00:12:59;3.03;;;2.73;;
10045;SDS011;5063;50.878;4.742;2023-04-15T00:15:26;4.13;;;2.77;;
10045;SDS011;5063;50.878;4.742;2023-04-15T00:17:52;6.50;;;3.00;;
10045;SDS011;5063;50.878;4.742;2023-04-15T00:20:17;2.97;;;2.23;;
10045;SDS011;5063;50.878;4.742;2023-04-15T00:22:43;4.60;;;3.03;;
10045;SDS011;5063;50.878;4.742;2023-04-15T00:25:09;5.00;;;3.20;;
10045;SDS011;5063;50.878;4.742;2023-04-15T00:27:35;3.77;;;2.67;;
10045;SDS011;5063;50.878;4.742;2023-04-15T00:30:01;3.47;;;3.07;;
10045;SDS011;5063;50.878;4.742;2023-04-15T00:32:28;5.27;;;3.10;;
10045;SDS011;5063;50.878;4.742;2023-04-15T00:34:54;7.40;;;3.37;;
10045;SDS011;5063;50.878;4.742;2023-04-15T00:37:20;6.40;;;3.03;;
10045;SDS011;5063;50.878;4.742;2023-04-15T00:39:45;4.50;;;2.70;;
10045;SDS011;5063;50.878;4.742;2023-04-15T00:42:12;3.97;;;3.20;;
10045;SDS011;5063;50.878;4.742;2023-04-15T00:44:37;8.00;;;3.60;;
10045;SDS011;5063;50.878;4.742;2023-04-15T00:47:03;4.77;;;3.10;;
10045;SDS011;5063;50.878;4.742;2023-04-15T00:49:30;7.20;;;3.73;;
10045;SDS011;5063;50.878;4.742;2023-04-15T00:51:56;4.87;;;3.17;;
10045;SDS011;5063;50.878;4.742;2023-04-15T00:54:22;6.97;;;3.40;;
10045;SDS011;5063;50.878;4.742;2023-04-15T00:56:47;5.20;;;3.10;;
10045;SDS011;5063;50.878;4.742;2023-04-15T00:59:13;4.97;;;3.20;;
10045;SDS011;5063;50.878;4.742;2023-04-15T01:01:40;4.77;;;3.33;;
10045;SDS011;5063;50.878;4.742;2023-04-15T01:04:06;7.00;;;3.60;;
10045;SDS011;5063;50.878;4.742;2023-04-15T01:06:32;6.37;;;3.93;;
10045;SDS011;5063;50.878;4.742;2023-04-15T01:08:58;10.87;;;3.70;;
10045;SDS011;5063;50.878;4.742;2023-04-15T01:11:24;6.23;;;4.00;;
10045;SDS011;5063;50.878;4.742;2023-04-15T01:13:51;3.87;;;3.27;;
10045;SDS011;5063;50.878;4.742;2023-04-15T01:16:17;5.03;;;3.27;;
10045;SDS011;5063;50.878;4.742;2023-04-15T01:18:44;4.33;;;3.43;;
10045;SDS011;5063;50.878;4.742;2023-04-15T01:21:10;6.03;;;3.20;;
10045;SDS011;5063;50.878;4.742;2023-04-15T01:23:36;5.67;;;3.50;;
10045;SDS011;5063;50.878;4.742;2023-04-15T01:26:04;6.63;;;3.77;;
10045;SDS011;5063;50.878;4.742;2023-04-15T01:28:32;4.53;;;3.43;;
10045;SDS011;5063;50.878;4.742;2023-04-15T01:31:18;3.60;;;3.00;;
10045;SDS011;5063;50.878;4.742;2023-04-15T01:33:44;4.67;;;3.67;;
10045;SDS011;5063;50.878;4.742;2023-04-15T01:36:11;7.80;;;4.17;;
10045;SDS011;5063;50.878;4.742;2023-04-15T01:38:36;6.20;;;3.70;;
10045;SDS011;5063;50.878;4.742;2023-04-15T01:41:03;5.87;;;3.90;;
10045;SDS011;5063;50.878;4.742;2023-04-15T01:43:30;7.30;;;3.93;;
10045;SDS011;5063;50.878;4.742;2023-04-15T01:45:57;8.20;;;3.90;;
10045;SDS011;5063;50.878;4.742;2023-04-15T01:48:22;4.13;;;3.30;;
10045;SDS011;5063;50.878;4.742;2023-04-15T01:50:48;5.70;;;4.27;;
10045;SDS011;5063;50.878;4.742;2023-04-15T01:53:14;9.97;;;3.77;;
10045;SDS011;5063;50.878;4.742;2023-04-15T01:55:40;5.23;;;3.70;;
10045;SDS011;5063;50.878;4.742;2023-04-15T01:58:06;6.23;;;3.47;;
10045;SDS011;5063;50.878;4.742;2023-04-15T02:00:32;5.00;;;3.27;;
10045;SDS011;5063;50.878;4.742;2023-04-15T02:02:58;5.53;;;3.00;;
10045;SDS011;5063;50.878;4.742;2023-04-15T02:05:24;3.60;;;3.20;;
10045;SDS011;5063;50.878;4.742;2023-04-15T02:07:50;7.93;;;3.60;;
10045;SDS011;5063;50.878;4.742;2023-04-15T02:10:16;8.73;;;3.57;;
10045;SDS011;5063;50.878;4.742;2023-04-15T02:12:42;5.63;;;3.53;;
10045;SDS011;5063;50.878;4.742;2023-04-15T02:15:08;9.57;;;3.60;;
10045;SDS011;5063;50.878;4.742;2023-04-15T02:17:34;7.27;;;3.67;;
10045;SDS011;5063;50.878;4.742;2023-04-15T02:20:01;4.73;;;3.23;;
10045;SDS011;5063;50.878;4.742;2023-04-15T02:22:30;5.90;;;3.53;;
10045;SDS011;5063;50.878;4.742;2023-04-15T02:24:55;8.73;;;3.83;;
10045;SDS011;5063;50.878;4.742;2023-04-15T02:27:21;5.63;;;3.70;;
10045;SDS011;5063;50.878;4.742;2023-04-15T02:29:47;5.03;;;3.37;;
10045;SDS011;5063;50.878;4.742;2023-04-15T02:32:15;8.57;;;3.93;;
10045;SDS011;5063;50.878;4.742;2023-04-15T02:34:41;7.70;;;3.57;;
10045;SDS011;5063;50.878;4.742;2023-04-15T02:37:07;5.10;;;3.70;;
10045;SDS011;5063;50.878;4.742;2023-04-15T02:39:37;6.60;;;3.67;;
10045;SDS011;5063;50.878;4.742;2023-04-15T02:42:03;5.43;;;3.47;;
10045;SDS011;5063;50.878;4.742;2023-04-15T02:44:30;5.20;;;3.50;;
10045;SDS011;5063;50.878;4.742;2023-04-15T02:46:57;6.77;;;3.53;;
10045;SDS011;5063;50.878;4.742;2023-04-15T02:49:23;6.00;;;3.60;;
10045;SDS011;5063;50.878;4.742;2023-04-15T02:51:49;7.17;;;3.57;;
10045;SDS011;5063;50.878;4.742;2023-04-15T02:54:16;5.03;;;3.57;;
10045;SDS011;5063;50.878;4.742;2023-04-15T02:56:45;9.07;;;3.90;;
10045;SDS011;5063;50.878;4.742;2023-04-15T02:59:11;6.83;;;3.60;;
10045;SDS011;5063;50.878;4.742;2023-04-15T03:01:37;6.03;;;3.37;;
10045;SDS011;5063;50.878;4.742;2023-04-15T03:04:03;3.83;;;3.33;;
10045;SDS011;5063;50.878;4.742;2023-04-15T03:06:28;10.03;;;4.07;;
10045;SDS011;5063;50.878;4.742;2023-04-15T03:08:55;4.90;;;3.43;;
10045;SDS011;5063;50.878;4.742;2023-04-15T03:11:21;9.73;;;3.70;;
10045;SDS011;5063;50.878;4.742;2023-04-15T03:13:47;5.93;;;3.73;;
10045;SDS011;5063;50.878;4.742;2023-04-15T03:16:12;4.37;;;3.40;;
10045;SDS011;5063;50.878;4.742;2023-04-15T03:18:38;5.47;;;3.57;;
10045;SDS011;5063;50.878;4.742;2023-04-15T03:21:04;4.90;;;3.23;;
10045;SDS011;5063;50.878;4.742;2023-04-15T03:23:30;7.83;;;3.97;;
10045;SDS011;5063;50.878;4.742;2023-04-15T03:25:56;6.63;;;3.80;;
10045;SDS011;5063;50.878;4.742;2023-04-15T03:28:23;7.90;;;4.03;;
10045;SDS011;5063;50.878;4.742;2023-04-15T03:30:48;5.60;;;3.60;;
10045;SDS011;5063;50.878;4.742;2023-04-15T03:33:14;6.50;;;3.80;;
10045;SDS011;5063;50.878;4.742;2023-04-15T03:35:40;7.27;;;3.90;;
10045;SDS011;5063;50.878;4.742;2023-04-15T03:38:06;6.33;;;3.97;;
10045;SDS011;5063;50.878;4.742;2023-04-15T03:40:31;4.43;;;3.70;;
10045;SDS011;5063;50.878;4.742;2023-04-15T03:42:57;6.77;;;4.07;;
10045;SDS011;5063;50.878;4.742;2023-04-15T03:45:23;7.57;;;3.97;;
10045;SDS011;5063;50.878;4.742;2023-04-15T03:47:49;6.77;;;4.27;;
10045;SDS011;5063;50.878;4.742;2023-04-15T03:50:15;6.80;;;4.67;;
10045;SDS011;5063;50.878;4.742;2023-04-15T03:52:41;6.83;;;4.30;;
10045;SDS011;5063;50.878;4.742;2023-04-15T03:55:07;5.70;;;4.20;;
10045;SDS011;5063;50.878;4.742;2023-04-15T03:57:33;6.03;;;3.67;;
10045;SDS011;5063;50.878;4.742;2023-04-15T04:00:06;6.67;;;4.50;;
10045;SDS011;5063;50.878;4.742;2023-04-15T04:02:35;5.43;;;3.70;;
10045;SDS011;5063;50.878;4.742;2023-04-15T04:05:02;6.37;;;4.27;;
10045;SDS011;5063;50.878;4.742;2023-04-15T04:07:28;6.67;;;3.70;;
10045;SDS011;5063;50.878;4.742;2023-04-15T04:09:55;7.30;;;4.57;;
10045;SDS011;5063;50.878;4.742;2023-04-15T04:12:21;8.80;;;4.30;;
10045;SDS011;5063;50.878;4.742;2023-04-15T04:14:47;6.50;;;4.07;;
10045;SDS011;5063;50.878;4.742;2023-04-15T04:17:12;5.23;;;3.57;;
10045;SDS011;5063;50.878;4.742;2023-04-15T04:19:38;8.47;;;4.37;;
10045;SDS011;5063;50.878;4.742;2023-04-15T04:22:04;6.70;;;4.57;;
10045;SDS011;5063;50.878;4.742;2023-04-15T04:24:29;9.07;;;4.23;;
10045;SDS011;5063;50.878;4.742;2023-04-15T04:26:55;6.77;;;3.70;;
10045;SDS011;5063;50.878;4.742;2023-04-15T04:29:21;7.27;;;4.13;;
10045;SDS011;5063;50.878;4.742;2023-04-15T04:31:47;7.97;;;4.13;;
10045;SDS011;5063;50.878;4.742;2023-04-15T04:34:13;4.67;;;3.47;;
10045;SDS011;5063;50.878;4.742;2023-04-15T04:36:40;6.37;;;3.97;;
10045;SDS011;5063;50.878;4.742;2023-04-15T04:39:05;4.43;;;3.63;;
10045;SDS011;5063;50.878;4.742;2023-04-15T04:41:32;6.03;;;3.90;;
10045;SDS011;5063;50.878;4.742;2023-04-15T04:43:57;5.37;;;4.03;;
10045;SDS011;5063;50.878;4.742;2023-04-15T04:46:23;4.47;;;3.63;;
10045;SDS011;5063;50.878;4.742;2023-04-15T04:48:49;6.97;;;3.67;;
10045;SDS011;5063;50.878;4.742;2023-04-15T04:51:15;6.80;;;3.87;;
10045;SDS011;5063;50.878;4.742;2023-04-15T04:53:40;4.87;;;3.90;;
10045;SDS011;5063;50.878;4.742;2023-04-15T04:56:07;5.70;;;4.47;;
10045;SDS011;5063;50.878;4.742;2023-04-15T04:58:33;7.80;;;4.30;;
10045;SDS011;5063;50.878;4.742;2023-04-15T05:00:59;4.83;;;3.93;;
10045;SDS011;5063;50.878;4.742;2023-04-15T05:03:24;7.17;;;3.63;;
10045;SDS011;5063;50.878;4.742;2023-04-15T05:05:51;4.20;;;3.40;;
10045;SDS011;5063;50.878;4.742;2023-04-15T05:08:17;6.07;;;4.10;;
10045;SDS011;5063;50.878;4.742;2023-04-15T05:10:43;7.40;;;3.93;;
10045;SDS011;5063;50.878;4.742;2023-04-15T05:13:08;6.97;;;4.63;;
10045;SDS011;5063;50.878;4.742;2023-04-15T05:15:34;4.80;;;3.73;;
10045;SDS011;5063;50.878;4.742;2023-04-15T05:18:01;8.20;;;4.53;;
10045;SDS011;5063;50.878;4.742;2023-04-15T05:20:27;7.07;;;4.07;;
10045;SDS011;5063;50.878;4.742;2023-04-15T05:22:53;4.13;;;3.77;;
10045;SDS011;5063;50.878;4.742;2023-04-15T05:25:18;6.93;;;4.87;;
10045;SDS011;5063;50.878;4.742;2023-04-15T05:27:45;4.87;;;4.13;;
10045;SDS011;5063;50.878;4.742;2023-04-15T05:30:11;6.53;;;4.20;;
10045;SDS011;5063;50.878;4.742;2023-04-15T05:32:37;6.00;;;4.47;;
10045;SDS011;5063;50.878;4.742;2023-04-15T05:35:02;8.63;;;4.93;;
10045;SDS011;5063;50.878;4.742;2023-04-15T05:37:28;8.20;;;4.23;;
10045;SDS011;5063;50.878;4.742;2023-04-15T05:39:54;6.40;;;4.53;;
10045;SDS011;5063;50.878;4.742;2023-04-15T05:42:20;7.73;;;4.70;;
10045;SDS011;5063;50.878;4.742;2023-04-15T05:44:46;5.43;;;4.30;;
10045;SDS011;5063;50.878;4.742;2023-04-15T05:47:12;9.13;;;5.30;;
10045;SDS011;5063;50.878;4.742;2023-04-15T05:49:38;7.63;;;4.57;;
10045;SDS011;5063;50.878;4.742;2023-04-15T05:52:03;8.50;;;5.20;;
10045;SDS011;5063;50.878;4.742;2023-04-15T05:54:29;9.27;;;5.00;;
10045;SDS011;5063;50.878;4.742;2023-04-15T05:56:55;10.07;;;5.23;;
10045;SDS011;5063;50.878;4.742;2023-04-15T05:59:22;8.20;;;5.00;;
10045;SDS011;5063;50.878;4.742;2023-04-15T06:01:48;6.17;;;4.50;;
10045;SDS011;5063;50.878;4.742;2023-04-15T06:04:16;8.33;;;4.63;;
10045;SDS011;5063;50.878;4.742;2023-04-15T06:06:41;5.97;;;3.83;;
10045;SDS011;5063;50.878;4.742;2023-04-15T06:09:07;6.97;;;4.50;;
10045;SDS011;5063;50.878;4.742;2023-04-15T06:11:33;8.53;;;4.53;;
10045;SDS011;5063;50.878;4.742;2023-04-15T06:13:59;8.60;;;4.77;;
10045;SDS011;5063;50.878;4.742;2023-04-15T06:16:24;7.00;;;4.50;;
10045;SDS011;5063;50.878;4.742;2023-04-15T06:18:51;9.63;;;5.00;;
10045;SDS011;5063;50.878;4.742;2023-04-15T06:21:17;8.60;;;4.47;;
10045;SDS011;5063;50.878;4.742;2023-04-15T06:23:43;6.20;;;4.60;;
10045;SDS011;5063;50.878;4.742;2023-04-15T06:26:09;6.27;;;4.40;;
10045;SDS011;5063;50.878;4.742;2023-04-15T06:28:35;6.53;;;4.27;;
10045;SDS011;5063;50.878;4.742;2023-04-15T06:31:01;13.70;;;4.90;;
10045;SDS011;5063;50.878;4.742;2023-04-15T06:33:27;7.73;;;4.50;;
10045;SDS011;5063;50.878;4.742;2023-04-15T06:35:53;9.00;;;5.50;;
10045;SDS011;5063;50.878;4.742;2023-04-15T06:38:18;8.13;;;4.83;;
10045;SDS011;5063;50.878;4.742;2023-04-15T06:40:44;7.83;;;4.83;;
10045;SDS011;5063;50.878;4.742;2023-04-15T06:43:10;7.23;;;5.23;;
10045;SDS011;5063;50.878;4.742;2023-04-15T06:45:36;11.23;;;5.03;;
10045;SDS011;5063;50.878;4.742;2023-04-15T06:48:01;6.33;;;4.90;;
10045;SDS011;5063;50.878;4.742;2023-04-15T06:50:27;10.97;;;5.33;;
10045;SDS011;5063;50.878;4.742;2023-04-15T06:52:53;7.07;;;4.83;;
10045;SDS011;5063;50.878;4.742;2023-04-15T06:55:20;8.13;;;4.93;;
10045;SDS011;5063;50.878;4.742;2023-04-15T06:57:46;9.90;;;4.73;;
10045;SDS011;5063;50.878;4.742;2023-04-15T07:00:12;9.80;;;4.87;;
10045;SDS011;5063;50.878;4.742;2023-04-15T07:02:38;7.53;;;4.67;;
10045;SDS011;5063;50.878;4.742;2023-04-15T07:05:06;7.30;;;4.73;;
10045;SDS011;5063;50.878;4.742;2023-04-15T07:07:32;8.67;;;5.07;;
10045;SDS011;5063;50.878;4.742;2023-04-15T07:09:58;8.03;;;5.13;;
10045;SDS011;5063;50.878;4.742;2023-04-15T07:12:23;7.17;;;4.83;;
10045;SDS011;5063;50.878;4.742;2023-04-15T07:14:50;7.90;;;5.30;;
10045;SDS011;5063;50.878;4.742;2023-04-15T07:17:15;5.70;;;4.27;;
10045;SDS011;5063;50.878;4.742;2023-04-15T07:19:41;7.20;;;4.30;;
10045;SDS011;5063;50.878;4.742;2023-04-15T07:22:07;6.87;;;4.50;;
10045;SDS011;5063;50.878;4.742;2023-04-15T07:24:33;9.67;;;5.10;;
10045;SDS011;5063;50.878;4.742;2023-04-15T07:26:58;10.17;;;4.53;;
10045;SDS011;5063;50.878;4.742;2023-04-15T07:29:24;9.63;;;4.97;;
10045;SDS011;5063;50.878;4.742;2023-04-15T07:31:51;8.07;;;4.40;;
10045;SDS011;5063;50.878;4.742;2023-04-15T07:34:17;9.37;;;4.80;;
10045;SDS011;5063;50.878;4.742;2023-04-15T07:36:43;8.73;;;4.23;;
10045;SDS011;5063;50.878;4.742;2023-04-15T07:39:10;8.53;;;5.33;;
10045;SDS011;5063;50.878;4.742;2023-04-15T07:41:35;6.80;;;4.73;;
10045;SDS011;5063;50.878;4.742;2023-04-15T07:44:02;6.20;;;4.60;;
10045;SDS011;5063;50.878;4.742;2023-04-15T07:46:28;8.60;;;4.83;;
10045;SDS011;5063;50.878;4.742;2023-04-15T07:48:53;11.20;;;5.10;;
10045;SDS011;5063;50.878;4.742;2023-04-15T07:51:19;10.93;;;5.10;;
10045;SDS011;5063;50.878;4.742;2023-04-15T07:53:45;8.53;;;5.10;;
10045;SDS011;5063;50.878;4.742;2023-04-15T07:56:12;9.27;;;4.73;;
10045;SDS011;5063;50.878;4.742;2023-04-15T07:58:38;8.47;;;5.30;;
10045;SDS011;5063;50.878;4.742;2023-04-15T08:01:04;6.97;;;5.40;;
10045;SDS011;5063;50.878;4.742;2023-04-15T08:03:30;8.77;;;5.57;;
10045;SDS011;5063;50.878;4.742;2023-04-15T08:05:56;9.00;;;4.53;;
10045;SDS011;5063;50.878;4.742;2023-04-15T08:08:21;6.73;;;4.60;;
10045;SDS011;5063;50.878;4.742;2023-04-15T08:10:47;7.37;;;4.47;;
10045;SDS011;5063;50.878;4.742;2023-04-15T08:13:14;9.53;;;4.53;;
10045;SDS011;5063;50.878;4.742;2023-04-15T08:15:40;8.67;;;5.10;;
10045;SDS011;5063;50.878;4.742;2023-04-15T08:18:06;7.20;;;4.90;;
10045;SDS011;5063;50.878;4.742;2023-04-15T08:20:32;12.10;;;5.40;;
10045;SDS011;5063;50.878;4.742;2023-04-15T08:22:57;7.43;;;4.60;;
10045;SDS011;5063;50.878;4.742;2023-04-15T08:25:23;7.10;;;5.13;;
10045;SDS011;5063;50.878;4.742;2023-04-15T08:27:49;9.33;;;5.13;;
10045;SDS011;5063;50.878;4.742;2023-04-15T08:30:15;7.70;;;5.50;;
10045;SDS011;5063;50.878;4.742;2023-04-15T08:32:41;5.77;;;4.50;;
10045;SDS011;5063;50.878;4.742;2023-04-15T08:35:10;7.00;;;5.00;;
10045;SDS011;5063;50.878;4.742;2023-04-15T08:37:37;8.47;;;5.20;;
10045;SDS011;5063;50.878;4.742;2023-04-15T08:40:02;7.20;;;5.50;;
10045;SDS011;5063;50.878;4.742;2023-04-15T08:42:34;7.77;;;5.47;;
10045;SDS011;5063;50.878;4.742;2023-04-15T08:45:05;9.87;;;5.67;;
10045;SDS011;5063;50.878;4.742;2023-04-15T08:47:35;9.10;;;5.90;;
10045;SDS011;5063;50.878;4.742;2023-04-15T08:50:07;9.20;;;5.80;;
10045;SDS011;5063;50.878;4.742;2023-04-15T08:52:34;7.33;;;5.57;;
10045;SDS011;5063;50.878;4.742;2023-04-15T08:55:01;7.73;;;5.63;;
10045;SDS011;5063;50.878;4.742;2023-04-15T08:57:27;7.67;;;6.10;;
10045;SDS011;5063;50.878;4.742;2023-04-15T08:59:56;8.10;;;6.50;;
10045;SDS011;5063;50.878;4.742;2023-04-15T09:02:23;9.53;;;6.47;;
10045;SDS011;5063;50.878;4.742;2023-04-15T09:04:51;8.20;;;6.07;;
10045;SDS011;5063;50.878;4.742;2023-04-15T09:07:17;13.83;;;7.20;;
10045;SDS011;5063;50.878;4.742;2023-04-15T09:09:43;8.67;;;6.40;;
10045;SDS011;5063;50.878;4.742;2023-04-15T09:12:10;7.00;;;5.67;;
10045;SDS011;5063;50.878;4.742;2023-04-15T09:14:36;6.73;;;5.93;;
10045;SDS011;5063;50.878;4.742;2023-04-15T09:17:04;8.60;;;5.87;;
10045;SDS011;5063;50.878;4.742;2023-04-15T09:19:34;11.13;;;6.37;;
10045;SDS011;5063;50.878;4.742;2023-04-15T09:21:59;9.50;;;6.90;;
10045;SDS011;5063;50.878;4.742;2023-04-15T09:24:32;7.97;;;6.20;;
10045;SDS011;5063;50.878;4.742;2023-04-15T09:27:01;8.50;;;6.70;;
10045;SDS011;5063;50.878;4.742;2023-04-15T09:29:27;11.13;;;6.30;;
10045;SDS011;5063;50.878;4.742;2023-04-15T09:31:53;9.57;;;6.27;;
10045;SDS011;5063;50.878;4.742;2023-04-15T09:34:19;9.63;;;6.30;;
10045;SDS011;5063;50.878;4.742;2023-04-15T09:36:52;6.37;;;5.53;;
10045;SDS011;5063;50.878;4.742;2023-04-15T09:39:20;7.07;;;4.93;;
10045;SDS011;5063;50.878;4.742;2023-04-15T09:41:46;7.03;;;5.20;;
10045;SDS011;5063;50.878;4.742;2023-04-15T09:44:25;6.57;;;5.67;;
10045;SDS011;5063;50.878;4.742;2023-04-15T09:46:51;9.47;;;6.53;;
10045;SDS011;5063;50.878;4.742;2023-04-15T09:49:16;6.57;;;5.90;;
10045;SDS011;5063;50.878;4.742;2023-04-15T09:51:42;6.90;;;5.37;;
10045;SDS011;5063;50.878;4.742;2023-04-15T09:54:08;5.80;;;5.20;;
10045;SDS011;5063;50.878;4.742;2023-04-15T09:56:34;6.13;;;5.47;;
10045;SDS011;5063;50.878;4.742;2023-04-15T09:59:03;7.87;;;5.27;;
10045;SDS011;5063;50.878;4.742;2023-04-15T10:01:29;6.30;;;4.90;;
10045;SDS011;5063;50.878;4.742;2023-04-15T10:03:56;7.43;;;5.07;;
10045;SDS011;5063;50.878;4.742;2023-04-15T10:06:25;4.73;;;4.20;;
10045;SDS011;5063;50.878;4.742;2023-04-15T10:08:51;5.27;;;4.57;;
10045;SDS011;5063;50.878;4.742;2023-04-15T10:11:19;6.63;;;4.73;;
10045;SDS011;5063;50.878;4.742;2023-04-15T10:13:48;6.37;;;4.70;;
10045;SDS011;5063;50.878;4.742;2023-04-15T10:16:15;7.40;;;4.20;;
10045;SDS011;5063;50.878;4.742;2023-04-15T10:18:45;6.43;;;3.43;;
10045;SDS011;5063;50.878;4.742;2023-04-15T10:21:12;5.90;;;3.60;;
10045;SDS011;5063;50.878;4.742;2023-04-15T10:23:42;4.47;;;3.30;;
10045;SDS011;5063;50.878;4.742;2023-04-15T10:26:09;4.50;;;4.10;;
10045;SDS011;5063;50.878;4.742;2023-04-15T10:28:37;5.53;;;2.93;;
10045;SDS011;5063;50.878;4.742;2023-04-15T10:31:03;4.17;;;3.27;;
10045;SDS011;5063;50.878;4.742;2023-04-15T10:33:30;3.73;;;3.17;;
10045;SDS011;5063;50.878;4.742;2023-04-15T10:35:56;5.20;;;3.57;;
10045;SDS011;5063;50.878;4.742;2023-04-15T10:38:35;6.60;;;3.53;;
10045;SDS011;5063;50.878;4.742;2023-04-15T10:41:22;3.77;;;3.30;;
10045;SDS011;5063;50.878;4.742;2023-04-15T10:44:01;5.47;;;3.80;;
10045;SDS011;5063;50.878;4.742;2023-04-15T10:46:37;5.10;;;3.50;;
10045;SDS011;5063;50.878;4.742;2023-04-15T10:51:36;4.30;;;2.70;;
10045;SDS011;5063;50.878;4.742;2023-04-15T10:54:14;2.90;;;2.60;;
10045;SDS011;5063;50.878;4.742;2023-04-15T10:59:30;3.53;;;2.90;;
10045;SDS011;5063;50.878;4.742;2023-04-15T11:02:00;2.77;;;2.53;;
10045;SDS011;5063;50.878;4.742;2023-04-15T11:09:58;3.77;;;2.70;;
10045;SDS011;5063;50.878;4.742;2023-04-15T11:12:32;3.70;;;3.13;;
10045;SDS011;5063;50.878;4.742;2023-04-15T11:15:23;3.13;;;2.80;;
10045;SDS011;5063;50.878;4.742;2023-04-15T11:17:51;5.20;;;3.03;;
10045;SDS011;5063;50.878;4.742;2023-04-15T11:20:17;4.93;;;2.57;;
10045;SDS011;5063;50.878;4.742;2023-04-15T11:22:49;3.37;;;2.50;;
10045;SDS011;5063;50.878;4.742;2023-04-15T11:25:25;2.83;;;2.50;;
10045;SDS011;5063;50.878;4.742;2023-04-15T11:27:52;2.57;;;2.30;;
10045;SDS011;5063;50.878;4.742;2023-04-15T11:30:19;2.60;;;2.40;;
10045;SDS011;5063;50.878;4.742;2023-04-15T11:32:47;5.53;;;2.53;;
10045;SDS011;5063;50.878;4.742;2023-04-15T11:35:14;4.13;;;3.57;;
10045;SDS011;5063;50.878;4.742;2023-04-15T11:37:41;3.83;;;2.83;;
10045;SDS011;5063;50.878;4.742;2023-04-15T11:40:07;4.50;;;3.60;;
10045;SDS011;5063;50.878;4.742;2023-04-15T11:42:33;3.57;;;2.60;;
10045;SDS011;5063;50.878;4.742;2023-04-15T11:45:05;4.57;;;3.03;;
10045;SDS011;5063;50.878;4.742;2023-04-15T11:47:38;4.70;;;2.90;;
10045;SDS011;5063;50.878;4.742;2023-04-15T11:52:41;3.87;;;2.60;;
10045;SDS011;5063;50.878;4.742;2023-04-15T11:55:20;4.03;;;2.97;;
10045;SDS011;5063;50.878;4.742;2023-04-15T11:57:47;4.07;;;3.17;;
10045;SDS011;5063;50.878;4.742;2023-04-15T12:00:32;3.87;;;2.87;;
10045;SDS011;5063;50.878;4.742;2023-04-15T12:03:16;2.97;;;2.70;;
10045;SDS011;5063;50.878;4.742;2023-04-15T12:08:59;2.23;;;2.03;;
10045;SDS011;5063;50.878;4.742;2023-04-15T12:11:30;2.13;;;1.70;;
10045;SDS011;5063;50.878;4.742;2023-04-15T12:16:30;2.07;;;1.93;;
10045;SDS011;5063;50.878;4.742;2023-04-15T12:18:57;3.80;;;2.07;;
10045;SDS011;5063;50.878;4.742;2023-04-15T12:21:27;4.17;;;1.90;;
10045;SDS011;5063;50.878;4.742;2023-04-15T12:24:00;3.50;;;1.80;;
10045;SDS011;5063;50.878;4.742;2023-04-15T12:26:29;2.47;;;2.27;;
10045;SDS011;5063;50.878;4.742;2023-04-15T12:29:02;2.30;;;2.10;;
10045;SDS011;5063;50.878;4.742;2023-04-15T12:31:28;2.23;;;2.03;;
10045;SDS011;5063;50.878;4.742;2023-04-15T12:33:55;3.33;;;2.47;;
10045;SDS011;5063;50.878;4.742;2023-04-15T12:36:25;4.27;;;2.17;;
10045;SDS011;5063;50.878;4.742;2023-04-15T12:38:51;2.20;;;1.53;;
10045;SDS011;5063;50.878;4.742;2023-04-15T12:41:17;2.57;;;1.70;;
10045;SDS011;5063;50.878;4.742;2023-04-15T12:43:44;2.53;;;1.67;;
10045;SDS011;5063;50.878;4.742;2023-04-15T12:46:10;4.87;;;1.83;;
10045;SDS011;5063;50.878;4.742;2023-04-15T12:48:37;3.93;;;2.00;;
10045;SDS011;5063;50.878;4.742;2023-04-15T12:51:02;1.93;;;1.67;;
10045;SDS011;5063;50.878;4.742;2023-04-15T12:53:28;2.50;;;1.40;;
10045;SDS011;5063;50.878;4.742;2023-04-15T12:55:54;2.80;;;1.80;;
10045;SDS011;5063;50.878;4.742;2023-04-15T12:58:20;1.33;;;1.20;;
10045;SDS011;5063;50.878;4.742;2023-04-15T13:00:46;2.27;;;2.07;;
10045;SDS011;5063;50.878;4.742;2023-04-15T13:03:12;3.53;;;2.00;;
10045;SDS011;5063;50.878;4.742;2023-04-15T13:05:38;2.50;;;2.07;;
10045;SDS011;5063;50.878;4.742;2023-04-15T13:08:04;1.70;;;1.60;;
10045;SDS011;5063;50.878;4.742;2023-04-15T13:10:31;2.63;;;1.47;;
10045;SDS011;5063;50.878;4.742;2023-04-15T13:12:56;3.30;;;1.97;;
10045;SDS011;5063;50.878;4.742;2023-04-15T13:15:22;3.07;;;2.07;;
10045;SDS011;5063;50.878;4.742;2023-04-15T13:17:48;2.67;;;2.00;;
10045;SDS011;5063;50.878;4.742;2023-04-15T13:20:14;3.67;;;1.87;;
10045;SDS011;5063;50.878;4.742;2023-04-15T13:22:40;2.27;;;1.87;;
10045;SDS011;5063;50.878;4.742;2023-04-15T13:25:06;1.90;;;1.70;;
10045;SDS011;5063;50.878;4.742;2023-04-15T13:27:33;2.83;;;1.90;;
10045;SDS011;5063;50.878;4.742;2023-04-15T13:29:58;2.43;;;1.73;;
10045;SDS011;5063;50.878;4.742;2023-04-15T13:32:24;2.50;;;2.30;;
10045;SDS011;5063;50.878;4.742;2023-04-15T13:34:50;2.67;;;1.90;;
10045;SDS011;5063;50.878;4.742;2023-04-15T13:37:16;2.07;;;1.80;;
10045;SDS011;5063;50.878;4.742;2023-04-15T13:39:42;1.63;;;1.37;;
10045;SDS011;5063;50.878;4.742;2023-04-15T13:42:07;2.10;;;1.80;;
10045;SDS011;5063;50.878;4.742;2023-04-15T13:44:33;3.67;;;1.90;;
10045;SDS011;5063;50.878;4.742;2023-04-15T13:46:59;2.80;;;1.90;;
10045;SDS011;5063;50.878;4.742;2023-04-15T13:49:25;3.40;;;1.77;;
10045;SDS011;5063;50.878;4.742;2023-04-15T13:51:51;3.83;;;1.53;;
10045;SDS011;5063;50.878;4.742;2023-04-15T13:54:16;3.87;;;2.30;;
10045;SDS011;5063;50.878;4.742;2023-04-15T13:56:42;5.73;;;2.10;;
10045;SDS011;5063;50.878;4.742;2023-04-15T13:59:08;3.13;;;1.80;;
10045;SDS011;5063;50.878;4.742;2023-04-15T14:01:33;4.37;;;2.20;;
10045;SDS011;5063;50.878;4.742;2023-04-15T14:04:00;3.60;;;2.40;;
10045;SDS011;5063;50.878;4.742;2023-04-15T14:06:26;5.57;;;2.30;;
10045;SDS011;5063;50.878;4.742;2023-04-15T14:08:53;5.03;;;2.43;;
10045;SDS011;5063;50.878;4.742;2023-04-15T14:11:19;2.90;;;2.53;;
10045;SDS011;5063;50.878;4.742;2023-04-15T14:13:44;3.80;;;2.10;;
10045;SDS011;5063;50.878;4.742;2023-04-15T14:16:10;4.10;;;2.13;;
10045;SDS011;5063;50.878;4.742;2023-04-15T14:18:36;3.20;;;2.07;;
10045;SDS011;5063;50.878;4.742;2023-04-15T14:21:01;2.27;;;1.80;;
10045;SDS011;5063;50.878;4.742;2023-04-15T14:23:27;3.37;;;2.23;;
10045;SDS011;5063;50.878;4.742;2023-04-15T14:25:53;3.33;;;2.20;;
10045;SDS011;5063;50.878;4.742;2023-04-15T14:28:19;3.03;;;2.30;;
10045;SDS011;5063;50.878;4.742;2023-04-15T14:30:45;3.70;;;2.70;;
10045;SDS011;5063;50.878;4.742;2023-04-15T14:33:10;2.23;;;1.93;;
10045;SDS011;5063;50.878;4.742;2023-04-15T14:35:36;2.10;;;1.90;;
10045;SDS011;5063;50.878;4.742;2023-04-15T14:38:02;2.27;;;2.07;;
10045;SDS011;5063;50.878;4.742;2023-04-15T14:40:30;2.63;;;1.97;;
10045;SDS011;5063;50.878;4.742;2023-04-15T14:42:56;2.13;;;1.60;;
10045;SDS011;5063;50.878;4.742;2023-04-15T14:45:22;3.93;;;2.03;;
10045;SDS011;5063;50.878;4.742;2023-04-15T14:47:48;2.20;;;1.87;;
10045;SDS011;5063;50.878;4.742;2023-04-15T14:50:14;4.13;;;1.83;;
10045;SDS011;5063;50.878;4.742;2023-04-15T14:52:39;2.67;;;1.80;;
10045;SDS011;5063;50.878;4.742;2023-04-15T14:55:08;3.67;;;1.70;;
10045;SDS011;5063;50.878;4.742;2023-04-15T14:57:39;2.57;;;1.83;;
10045;SDS011;5063;50.878;4.742;2023-04-15T15:00:06;2.23;;;1.60;;
10045;SDS011;5063;50.878;4.742;2023-04-15T15:02:34;5.07;;;2.10;;
10045;SDS011;5063;50.878;4.742;2023-04-15T15:05:00;2.03;;;1.60;;
10045;SDS011;5063;50.878;4.742;2023-04-15T15:07:27;5.20;;;1.40;;
10045;SDS011;5063;50.878;4.742;2023-04-15T15:09:53;1.50;;;1.40;;
10045;SDS011;5063;50.878;4.742;2023-04-15T15:12:19;2.37;;;1.43;;
10045;SDS011;5063;50.878;4.742;2023-04-15T15:14:46;1.80;;;1.27;;
10045;SDS011;5063;50.878;4.742;2023-04-15T15:17:12;3.17;;;1.40;;